sensor_id;sensor_type;location;lat;lon;timestamp;pressure;altitude;pressure_sealevel;temperature;humidity
66021;BME280;52789;59.980;30.346;2022-09-29T00:00:39;100384.22;;;7.18;100.00
66021;BME280;52789;59.980;30.346;2022-09-29T00:03:07;100386.72;;;7.20;100.00
66021;BME280;52789;59.980;30.346;2022-09-29T00:05:33;100381.06;;;7.14;100.00
66021;BME280;52789;59.980;30.346;2022-09-29T00:07:58;100383.69;;;7.14;100.00
66021;BME280;52789;59.980;30.346;2022-09-29T00:10:24;100384.84;;;7.12;100.00
66021;BME280;52789;59.980;30.346;2022-09-29T00:12:50;100377.66;;;7.04;100.00
66021;BME280;52789;59.980;30.346;2022-09-29T00:15:15;100373.72;;;7.08;100.00
66021;BME280;52789;59.980;30.346;2022-09-29T00:17:41;100391.25;;;7.09;100.00
66021;BME280;52789;59.980;30.346;2022-09-29T00:20:07;100387.63;;;7.10;100.00
66021;BME280;52789;59.980;30.346;2022-09-29T00:22:33;100382.78;;;7.06;100.00
66021;BME280;52789;59.980;30.346;2022-09-29T00:24:59;100385.81;;;7.11;100.00
66021;BME280;52789;59.980;30.346;2022-09-29T00:27:24;100381.28;;;7.03;100.00
66021;BME280;52789;59.980;30.346;2022-09-29T00:29:50;100368.50;;;6.99;100.00
66021;BME280;52789;59.980;30.346;2022-09-29T00:32:16;100372.66;;;7.01;100.00
66021;BME280;52789;59.980;30.346;2022-09-29T00:34:41;100376.34;;;7.08;100.00
66021;BME280;52789;59.980;30.346;2022-09-29T00:37:07;100369.94;;;7.11;100.00
66021;BME280;52789;59.980;30.346;2022-09-29T00:39:32;100371.97;;;7.17;100.00
66021;BME280;52789;59.980;30.346;2022-09-29T00:41:58;100374.25;;;7.12;100.00
66021;BME280;52789;59.980;30.346;2022-09-29T00:44:54;100376.13;;;7.20;100.00
66021;BME280;52789;59.980;30.346;2022-09-29T00:47:20;100371.81;;;7.19;100.00
66021;BME280;52789;59.980;30.346;2022-09-29T00:49:51;100374.09;;;7.13;100.00
66021;BME280;52789;59.980;30.346;2022-09-29T00:52:43;100369.16;;;7.19;100.00
66021;BME280;52789;59.980;30.346;2022-09-29T00:55:22;100370.84;;;7.20;100.00
66021;BME280;52789;59.980;30.346;2022-09-29T00:57:59;100368.63;;;7.15;100.00
66021;BME280;52789;59.980;30.346;2022-09-29T01:00:27;100364.47;;;7.12;100.00
66021;BME280;52789;59.980;30.346;2022-09-29T01:03:00;100367.59;;;7.08;100.00
66021;BME280;52789;59.980;30.346;2022-09-29T01:05:32;100375.97;;;7.03;100.00
66021;BME280;52789;59.980;30.346;2022-09-29T01:08:10;100361.53;;;6.98;100.00
66021;BME280;52789;59.980;30.346;2022-09-29T01:10:38;100366.97;;;6.96;100.00
66021;BME280;52789;59.980;30.346;2022-09-29T01:13:05;100346.81;;;6.86;100.00
66021;BME280;52789;59.980;30.346;2022-09-29T01:15:31;100361.53;;;6.98;100.00
66021;BME280;52789;59.980;30.346;2022-09-29T01:17:56;100353.97;;;7.03;100.00
66021;BME280;52789;59.980;30.346;2022-09-29T01:20:23;100345.03;;;7.04;100.00
66021;BME280;52789;59.980;30.346;2022-09-29T01:34:02;100353.44;;;6.99;100.00
66021;BME280;52789;59.980;30.346;2022-09-29T01:36:05;100351.47;;;7.01;100.00
66021;BME280;52789;59.980;30.346;2022-09-29T01:38:44;100346.03;;;7.03;100.00
66021;BME280;52789;59.980;30.346;2022-09-29T01:41:22;100344.50;;;7.00;100.00
66021;BME280;52789;59.980;30.346;2022-09-29T01:44:13;100339.06;;;7.02;100.00
66021;BME280;52789;59.980;30.346;2022-09-29T01:49:39;100336.19;;;6.95;100.00
66021;BME280;52789;59.980;30.346;2022-09-29T01:52:22;100332.97;;;6.92;100.00
66021;BME280;52789;59.980;30.346;2022-09-29T01:54:53;100335.22;;;6.96;100.00
66021;BME280;52789;59.980;30.346;2022-09-29T01:57:46;100326.13;;;6.99;100.00
66021;BME280;52789;59.980;30.346;2022-09-29T02:00:17;100338.09;;;7.03;100.00
66021;BME280;52789;59.980;30.346;2022-09-29T02:05:16;100323.63;;;6.97;100.00
66021;BME280;52789;59.980;30.346;2022-09-29T02:07:45;100317.66;;;6.95;100.00
66021;BME280;52789;59.980;30.346;2022-09-29T02:10:18;100327.34;;;7.04;100.00
66021;BME280;52789;59.980;30.346;2022-09-29T02:12:48;100320.91;;;7.07;100.00
66021;BME280;52789;59.980;30.346;2022-09-29T02:15:30;100321.75;;;7.07;100.00
66021;BME280;52789;59.980;30.346;2022-09-29T02:18:01;100324.00;;;7.02;100.00
66021;BME280;52789;59.980;30.346;2022-09-29T02:20:27;100323.63;;;6.97;100.00
66021;BME280;52789;59.980;30.346;2022-09-29T02:22:54;100323.94;;;6.94;100.00
66021;BME280;52789;59.980;30.346;2022-09-29T02:25:20;100330.78;;;6.87;100.00
66021;BME280;52789;59.980;30.346;2022-09-29T02:27:48;100335.09;;;6.88;100.00
66021;BME280;52789;59.980;30.346;2022-09-29T02:30:15;100314.13;;;6.77;100.00
66021;BME280;52789;59.980;30.346;2022-09-29T02:32:41;100329.94;;;6.87;100.00
66021;BME280;52789;59.980;30.346;2022-09-29T02:35:08;100322.84;;;6.87;100.00
66021;BME280;52789;59.980;30.346;2022-09-29T02:38:02;100329.81;;;6.88;100.00
66021;BME280;52789;59.980;30.346;2022-09-29T02:40:52;100323.81;;;6.86;100.00
66021;BME280;52789;59.980;30.346;2022-09-29T02:43:54;100331.31;;;6.91;100.00
66021;BME280;52789;59.980;30.346;2022-09-29T02:46:52;100331.47;;;6.89;100.00
66021;BME280;52789;59.980;30.346;2022-09-29T02:54:51;100325.50;;;6.87;100.00
66021;BME280;52789;59.980;30.346;2022-09-29T02:57:30;100330.94;;;6.86;100.00
66021;BME280;52789;59.980;30.346;2022-09-29T03:00:04;100324.28;;;6.81;100.00
66021;BME280;52789;59.980;30.346;2022-09-29T03:02:36;100329.28;;;6.84;100.00
66021;BME280;52789;59.980;30.346;2022-09-29T03:05:04;100330.41;;;6.82;100.00
66021;BME280;52789;59.980;30.346;2022-09-29T03:07:30;100327.75;;;6.82;100.00
66021;BME280;52789;59.980;30.346;2022-09-29T03:09:56;100335.78;;;6.90;100.00
66021;BME280;52789;59.980;30.346;2022-09-29T03:12:21;100330.47;;;6.90;100.00
66021;BME280;52789;59.980;30.346;2022-09-29T03:14:47;100325.88;;;6.92;100.00
66021;BME280;52789;59.980;30.346;2022-09-29T03:17:12;100333.25;;;6.98;100.00
66021;BME280;52789;59.980;30.346;2022-09-29T03:19:38;100326.84;;;6.91;100.00
66021;BME280;52789;59.980;30.346;2022-09-29T03:22:03;100333.53;;;6.95;100.00
66021;BME280;52789;59.980;30.346;2022-09-29T03:24:29;100332.00;;;6.93;100.00
66021;BME280;52789;59.980;30.346;2022-09-29T03:26:56;100329.50;;;6.91;100.00
66021;BME280;52789;59.980;30.346;2022-09-29T03:29:21;100314.13;;;6.77;100.00
66021;BME280;52789;59.980;30.346;2022-09-29T03:31:47;100324.28;;;6.81;100.00
66021;BME280;52789;59.980;30.346;2022-09-29T03:34:12;100331.22;;;6.82;100.00
66021;BME280;52789;59.980;30.346;2022-09-29T03:36:37;100337.66;;;6.80;100.00
66021;BME280;52789;59.980;30.346;2022-09-29T03:39:05;100335.47;;;6.75;100.00
66021;BME280;52789;59.980;30.346;2022-09-29T03:41:31;100331.84;;;6.76;100.00
66021;BME280;52789;59.980;30.346;2022-09-29T03:43:56;100337.97;;;6.77;100.00
66021;BME280;52789;59.980;30.346;2022-09-29T03:46:22;100331.44;;;6.71;100.00
66021;BME280;52789;59.980;30.346;2022-09-29T03:48:50;100336.22;;;6.68;100.00
66021;BME280;52789;59.980;30.346;2022-09-29T03:51:16;100320.59;;;6.65;100.00
66021;BME280;52789;59.980;30.346;2022-09-29T03:53:41;100342.97;;;6.80;100.00
66021;BME280;52789;59.980;30.346;2022-09-29T03:56:07;100323.50;;;6.71;100.00
66021;BME280;52789;59.980;30.346;2022-09-29T03:58:33;100333.50;;;6.77;100.00
66021;BME280;52789;59.980;30.346;2022-09-29T04:00:59;100340.47;;;6.78;100.00
66021;BME280;52789;59.980;30.346;2022-09-29T04:03:26;100327.81;;;6.72;100.00
66021;BME280;52789;59.980;30.346;2022-09-29T04:05:52;100330.78;;;6.69;100.00
66021;BME280;52789;59.980;30.346;2022-09-29T04:08:17;100339.63;;;6.78;100.00
66021;BME280;52789;59.980;30.346;2022-09-29T04:10:45;100333.19;;;6.80;100.00
66021;BME280;52789;59.980;30.346;2022-09-29T04:13:11;100330.69;;;6.79;100.00
66021;BME280;52789;59.980;30.346;2022-09-29T04:15:37;100330.41;;;6.82;100.00
66021;BME280;52789;59.980;30.346;2022-09-29T04:18:02;100315.81;;;6.78;100.00
66021;BME280;52789;59.980;30.346;2022-09-29T04:20:28;100331.09;;;6.84;100.00
66021;BME280;52789;59.980;30.346;2022-09-29T04:22:54;100321.78;;;6.80;100.00
66021;BME280;52789;59.980;30.346;2022-09-29T04:25:19;100305.97;;;6.70;100.00
66021;BME280;52789;59.980;30.346;2022-09-29T04:27:45;100323.28;;;6.82;100.00
66021;BME280;52789;59.980;30.346;2022-09-29T04:30:11;100316.78;;;6.77;100.00
66021;BME280;52789;59.980;30.346;2022-09-29T04:32:37;100325.88;;;6.92;100.00
66021;BME280;52789;59.980;30.346;2022-09-29T04:35:05;100333.66;;;6.94;100.00
66021;BME280;52789;59.980;30.346;2022-09-29T04:37:30;100308.63;;;6.70;100.00
66021;BME280;52789;59.980;30.346;2022-09-29T04:39:56;100331.09;;;6.84;100.00
66021;BME280;52789;59.980;30.346;2022-09-29T04:42:22;100317.63;;;6.77;100.00
66021;BME280;52789;59.980;30.346;2022-09-29T04:44:48;100323.75;;;6.78;100.00
66021;BME280;52789;59.980;30.346;2022-09-29T04:47:13;100316.41;;;6.72;100.00
66021;BME280;52789;59.980;30.346;2022-09-29T04:49:40;100326.09;;;6.81;100.00
66021;BME280;52789;59.980;30.346;2022-09-29T04:52:05;100328.66;;;6.91;100.00
66021;BME280;52789;59.980;30.346;2022-09-29T04:54:34;100327.31;;;6.87;100.00
66021;BME280;52789;59.980;30.346;2022-09-29T04:57:00;100323.44;;;6.81;100.00
66021;BME280;52789;59.980;30.346;2022-09-29T04:59:27;100314.59;;;6.72;100.00
66021;BME280;52789;59.980;30.346;2022-09-29T05:01:53;100327.06;;;6.80;100.00
66021;BME280;52789;59.980;30.346;2022-09-29T05:04:22;100337.66;;;6.80;100.00
66021;BME280;52789;59.980;30.346;2022-09-29T05:06:48;100334.88;;;6.81;100.00
66021;BME280;52789;59.980;30.346;2022-09-29T05:09:13;100326.00;;;6.73;100.00
66021;BME280;52789;59.980;30.346;2022-09-29T05:11:39;100310.59;;;6.68;100.00
66021;BME280;52789;59.980;30.346;2022-09-29T05:14:04;100326.31;;;6.88;100.00
66021;BME280;52789;59.980;30.346;2022-09-29T05:16:30;100323.81;;;6.86;100.00
66021;BME280;52789;59.980;30.346;2022-09-29T05:18:56;100327.84;;;6.90;100.00
66021;BME280;52789;59.980;30.346;2022-09-29T05:21:22;100326.31;;;6.88;100.00
66021;BME280;52789;59.980;30.346;2022-09-29T05:23:50;100327.69;;;6.92;100.00
66021;BME280;52789;59.980;30.346;2022-09-29T05:26:15;100321.78;;;6.80;100.00
66021;BME280;52789;59.980;30.346;2022-09-29T05:28:45;100324.19;;;6.73;100.00
66021;BME280;52789;59.980;30.346;2022-09-29T05:31:12;100324.03;;;6.75;100.00
66021;BME280;52789;59.980;30.346;2022-09-29T05:33:39;100325.25;;;6.80;100.00
66021;BME280;52789;59.980;30.346;2022-09-29T05:36:06;100331.22;;;6.82;100.00
66021;BME280;52789;59.980;30.346;2022-09-29T05:38:33;100323.75;;;6.78;100.00
66021;BME280;52789;59.980;30.346;2022-09-29T05:41:03;100330.47;;;6.90;100.00
66021;BME280;52789;59.980;30.346;2022-09-29T05:43:29;100334.91;;;6.99;100.00
66021;BME280;52789;59.980;30.346;2022-09-29T05:46:02;100328.94;;;6.97;100.00
66021;BME280;52789;59.980;30.346;2022-09-29T05:48:28;100316.94;;;6.93;100.00
66021;BME280;52789;59.980;30.346;2022-09-29T05:51:05;100329.84;;;7.06;100.00
66021;BME280;52789;59.980;30.346;2022-09-29T05:53:31;100330.91;;;6.95;100.00
66021;BME280;52789;59.980;30.346;2022-09-29T05:56:10;100338.13;;;6.93;100.00
66021;BME280;52789;59.980;30.346;2022-09-29T05:58:37;100344.69;;;6.89;100.00
66021;BME280;52789;59.980;30.346;2022-09-29T06:01:07;100340.78;;;6.93;100.00
66021;BME280;52789;59.980;30.346;2022-09-29T06:03:58;100349.00;;;6.90;100.00
66021;BME280;52789;59.980;30.346;2022-09-29T06:06:25;100346.78;;;6.95;100.00
66021;BME280;52789;59.980;30.346;2022-09-29T06:08:51;100343.03;;;6.88;100.00
66021;BME280;52789;59.980;30.346;2022-09-29T06:11:22;100342.34;;;6.86;100.00
66021;BME280;52789;59.980;30.346;2022-09-29T06:13:51;100342.22;;;6.88;100.00
66021;BME280;52789;59.980;30.346;2022-09-29T06:16:18;100347.63;;;6.96;100.00
66021;BME280;52789;59.980;30.346;2022-09-29T06:18:47;100356.16;;;7.07;100.00
66021;BME280;52789;59.980;30.346;2022-09-29T06:21:17;100352.59;;;7.17;100.00
66021;BME280;52789;59.980;30.346;2022-09-29T06:23:43;100357.22;;;7.14;100.00
66021;BME280;52789;59.980;30.346;2022-09-29T06:26:11;100367.81;;;7.14;100.00
66021;BME280;52789;59.980;30.346;2022-09-29T06:28:37;100361.53;;;7.15;100.00
66021;BME280;52789;59.980;30.346;2022-09-29T06:31:05;100358.56;;;7.19;100.00
66021;BME280;52789;59.980;30.346;2022-09-29T06:33:33;100359.03;;;7.14;100.00
66021;BME280;52789;59.980;30.346;2022-09-29T06:36:01;100358.88;;;7.15;100.00
66021;BME280;52789;59.980;30.346;2022-09-29T06:38:46;100360.25;;;7.20;100.00
66021;BME280;52789;59.980;30.346;2022-09-29T06:41:12;100362.50;;;7.14;100.00
66021;BME280;52789;59.980;30.346;2022-09-29T06:43:37;100362.88;;;7.20;100.00
66021;BME280;52789;59.980;30.346;2022-09-29T06:46:03;100361.91;;;7.21;100.00
66021;BME280;52789;59.980;30.346;2022-09-29T06:48:28;100359.72;;;7.16;100.00
66021;BME280;52789;59.980;30.346;2022-09-29T06:50:55;100371.97;;;7.17;100.00
66021;BME280;52789;59.980;30.346;2022-09-29T06:53:21;100363.50;;;7.13;100.00
66021;BME280;52789;59.980;30.346;2022-09-29T06:55:54;100359.03;;;7.14;100.00
66021;BME280;52789;59.980;30.346;2022-09-29T06:58:22;100361.22;;;7.19;100.00
66021;BME280;52789;59.980;30.346;2022-09-29T07:00:47;100359.22;;;7.30;100.00
66021;BME280;52789;59.980;30.346;2022-09-29T07:03:13;100364.56;;;7.38;100.00
66021;BME280;52789;59.980;30.346;2022-09-29T07:05:38;100365.56;;;7.37;100.00
66021;BME280;52789;59.980;30.346;2022-09-29T07:08:07;100365.09;;;7.42;100.00
66021;BME280;52789;59.980;30.346;2022-09-29T07:10:32;100366.22;;;7.39;100.00
66021;BME280;52789;59.980;30.346;2022-09-29T07:12:58;100359.44;;;7.37;100.00
66021;BME280;52789;59.980;30.346;2022-09-29T07:15:24;100352.47;;;7.36;100.00
66021;BME280;52789;59.980;30.346;2022-09-29T07:17:59;100364.16;;;7.51;100.00
66021;BME280;52789;59.980;30.346;2022-09-29T07:20:27;100361.31;;;7.62;100.00
66021;BME280;52789;59.980;30.346;2022-09-29T07:22:53;100370.97;;;7.71;100.00
66021;BME280;52789;59.980;30.346;2022-09-29T07:25:18;100370.63;;;7.66;100.00
66021;BME280;52789;59.980;30.346;2022-09-29T07:27:45;100383.13;;;7.56;100.00
66021;BME280;52789;59.980;30.346;2022-09-29T07:30:11;100381.47;;;7.55;100.00
66021;BME280;52789;59.980;30.346;2022-09-29T07:32:37;100380.78;;;7.53;100.00
66021;BME280;52789;59.980;30.346;2022-09-29T07:35:03;100375.91;;;7.49;100.00
66021;BME280;52789;59.980;30.346;2022-09-29T07:37:28;100379.56;;;7.47;100.00
66021;BME280;52789;59.980;30.346;2022-09-29T07:39:55;100387.75;;;7.54;100.00
66021;BME280;52789;59.980;30.346;2022-09-29T07:42:20;100392.38;;;7.52;100.00
66021;BME280;52789;59.980;30.346;2022-09-29T07:44:46;100390.16;;;7.47;100.00
66021;BME280;52789;59.980;30.346;2022-09-29T07:47:12;100384.84;;;7.47;100.00
66021;BME280;52789;59.980;30.346;2022-09-29T07:49:39;100381.97;;;7.41;100.00
66021;BME280;52789;59.980;30.346;2022-09-29T07:52:05;100385.09;;;7.36;100.00
66021;BME280;52789;59.980;30.346;2022-09-29T07:54:30;100385.97;;;7.45;100.00
66021;BME280;52789;59.980;30.346;2022-09-29T07:56:56;100393.72;;;7.56;100.00
66021;BME280;52789;59.980;30.346;2022-09-29T07:59:25;100392.06;;;7.55;100.00
66021;BME280;52789;59.980;30.346;2022-09-29T08:01:51;100393.19;;;7.53;100.00
66021;BME280;52789;59.980;30.346;2022-09-29T08:04:18;100384.31;;;7.44;100.00
66021;BME280;52789;59.980;30.346;2022-09-29T08:06:43;100390.41;;;7.54;100.00
66021;BME280;52789;59.980;30.346;2022-09-29T08:09:09;100380.53;;;7.64;100.00
66021;BME280;52789;59.980;30.346;2022-09-29T08:11:38;100400.28;;;7.70;100.00
66021;BME280;52789;59.980;30.346;2022-09-29T08:14:05;100399.25;;;7.63;100.00
66021;BME280;52789;59.980;30.346;2022-09-29T08:16:31;100402.56;;;7.65;100.00
66021;BME280;52789;59.980;30.346;2022-09-29T08:18:58;100397.94;;;7.67;100.00
66021;BME280;52789;59.980;30.346;2022-09-29T08:21:24;100403.25;;;7.67;100.00
66021;BME280;52789;59.980;30.346;2022-09-29T08:23:49;100400.38;;;7.60;100.00
66021;BME280;52789;59.980;30.346;2022-09-29T08:26:17;100398.03;;;7.57;100.00
66021;BME280;52789;59.980;30.346;2022-09-29T08:28:43;100399.91;;;7.65;100.00
66021;BME280;52789;59.980;30.346;2022-09-29T08:31:11;100392.66;;;7.67;100.00
66021;BME280;52789;59.980;30.346;2022-09-29T08:33:38;100392.94;;;7.82;100.00
66021;BME280;52789;59.980;30.346;2022-09-29T08:36:05;100395.88;;;7.78;100.00
66021;BME280;52789;59.980;30.346;2022-09-29T08:38:40;100393.78;;;7.82;100.00
66021;BME280;52789;59.980;30.346;2022-09-29T08:41:24;100386.34;;;7.86;100.00
66021;BME280;52789;59.980;30.346;2022-09-29T08:44:01;100391.03;;;7.92;100.00
66021;BME280;52789;59.980;30.346;2022-09-29T08:48:57;100395.13;;;7.86;99.84
66021;BME280;52789;59.980;30.346;2022-09-29T08:51:37;100407.94;;;7.91;100.00
66021;BME280;52789;59.980;30.346;2022-09-29T08:54:14;100400.66;;;7.93;100.00
66021;BME280;52789;59.980;30.346;2022-09-29T08:56:45;100403.88;;;8.04;100.00
66021;BME280;52789;59.980;30.346;2022-09-29T08:59:11;100408.19;;;8.05;100.00
66021;BME280;52789;59.980;30.346;2022-09-29T09:09:26;100423.34;;;8.13;99.88
66021;BME280;52789;59.980;30.346;2022-09-29T09:17:29;100414.41;;;8.14;98.81
66021;BME280;52789;59.980;30.346;2022-09-29T09:20:32;100416.16;;;8.05;98.34
66021;BME280;52789;59.980;30.346;2022-09-29T09:23:00;100406.31;;;7.98;98.68
66021;BME280;52789;59.980;30.346;2022-09-29T09:25:32;100416.66;;;8.09;99.13
66021;BME280;52789;59.980;30.346;2022-09-29T09:28:09;100420.03;;;8.11;99.60
66021;BME280;52789;59.980;30.346;2022-09-29T09:30:40;100425.31;;;8.11;99.05
66021;BME280;52789;59.980;30.346;2022-09-29T09:33:16;100422.81;;;8.10;99.58
66021;BME280;52789;59.980;30.346;2022-09-29T09:35:48;100427.97;;;8.11;99.31
66021;BME280;52789;59.980;30.346;2022-09-29T09:38:22;100421.97;;;8.09;99.31
66021;BME280;52789;59.980;30.346;2022-09-29T09:40:54;100435.00;;;8.20;98.89
66021;BME280;52789;59.980;30.346;2022-09-29T09:46:10;100438.94;;;8.16;98.66
66021;BME280;52789;59.980;30.346;2022-09-29T09:48:41;100442.06;;;8.12;99.38
66021;BME280;52789;59.980;30.346;2022-09-29T09:54:02;100442.91;;;8.12;98.95
66021;BME280;52789;59.980;30.346;2022-09-29T10:00:40;100443.00;;;8.28;99.58
66021;BME280;52789;59.980;30.346;2022-09-29T10:02:44;100434.16;;;8.20;100.00
66021;BME280;52789;59.980;30.346;2022-09-29T10:05:15;100448.94;;;8.22;100.00
66021;BME280;52789;59.980;30.346;2022-09-29T10:07:43;100433.28;;;8.11;99.97
66021;BME280;52789;59.980;30.346;2022-09-29T10:10:20;100441.81;;;8.23;100.00
66021;BME280;52789;59.980;30.346;2022-09-29T10:12:54;100446.34;;;8.30;100.00
66021;BME280;52789;59.980;30.346;2022-09-29T10:15:28;100451.19;;;8.35;99.76
66021;BME280;52789;59.980;30.346;2022-09-29T10:18:04;100446.47;;;8.47;99.22
66021;BME280;52789;59.980;30.346;2022-09-29T10:20:33;100443.66;;;8.48;97.67
66021;BME280;52789;59.980;30.346;2022-09-29T10:26:10;100458.53;;;8.67;98.52
66021;BME280;52789;59.980;30.346;2022-09-29T10:28:49;100456.84;;;8.66;98.03
66021;BME280;52789;59.980;30.346;2022-09-29T10:31:23;100454.00;;;8.59;98.76
66021;BME280;52789;59.980;30.346;2022-09-29T10:34:14;100459.75;;;8.73;99.06
66021;BME280;52789;59.980;30.346;2022-09-29T10:37:17;100466.88;;;8.72;98.72
66021;BME280;52789;59.980;30.346;2022-09-29T10:39:46;100465.31;;;8.61;99.06
66021;BME280;52789;59.980;30.346;2022-09-29T10:44:59;100468.13;;;8.60;99.33
66021;BME280;52789;59.980;30.346;2022-09-29T10:47:25;100467.41;;;8.50;99.40
66021;BME280;52789;59.980;30.346;2022-09-29T10:50:20;100479.38;;;8.54;100.00
66021;BME280;52789;59.980;30.346;2022-09-29T10:52:57;100478.09;;;8.66;100.00
66021;BME280;52789;59.980;30.346;2022-09-29T10:57:55;100473.34;;;8.69;100.00
66021;BME280;52789;59.980;30.346;2022-09-29T11:00:47;100478.09;;;8.66;100.00
66021;BME280;52789;59.980;30.346;2022-09-29T11:03:26;100482.81;;;8.72;100.00
66021;BME280;52789;59.980;30.346;2022-09-29T11:06:53;100483.50;;;8.82;100.00
66021;BME280;52789;59.980;30.346;2022-09-29T11:11:34;100479.00;;;8.75;99.95
66021;BME280;52789;59.980;30.346;2022-09-29T11:14:00;100481.81;;;8.73;100.00
66021;BME280;52789;59.980;30.346;2022-09-29T11:19:02;100481.06;;;8.63;100.00
66021;BME280;52789;59.980;30.346;2022-09-29T11:35:10;100473.09;;;8.89;100.00
66021;BME280;52789;59.980;30.346;2022-09-29T11:41:45;100480.00;;;9.08;99.66
66021;BME280;52789;59.980;30.346;2022-09-29T11:49:57;100477.19;;;8.75;100.00
66021;BME280;52789;59.980;30.346;2022-09-29T11:57:58;100490.59;;;8.74;100.00
66021;BME280;52789;59.980;30.346;2022-09-29T12:00:47;100487.78;;;8.75;100.00
66021;BME280;52789;59.980;30.346;2022-09-29T12:12:07;100492.13;;;8.76;100.00
66021;BME280;52789;59.980;30.346;2022-09-29T12:17:28;100475.25;;;8.93;100.00
66021;BME280;52789;59.980;30.346;2022-09-29T12:20:15;100489.16;;;9.21;99.47
66021;BME280;52789;59.980;30.346;2022-09-29T12:22:45;100485.41;;;9.32;98.03
66021;BME280;52789;59.980;30.346;2022-09-29T12:25:20;100474.13;;;9.38;98.29
66021;BME280;52789;59.980;30.346;2022-09-29T12:27:51;100453.03;;;9.45;98.05
66021;BME280;52789;59.980;30.346;2022-09-29T12:30:22;100473.69;;;9.67;95.69
66021;BME280;52789;59.980;30.346;2022-09-29T12:33:12;100479.50;;;9.62;95.59
66021;BME280;52789;59.980;30.346;2022-09-29T12:43:48;100488.19;;;10.05;94.23
66021;BME280;52789;59.980;30.346;2022-09-29T12:46:26;100481.03;;;9.98;94.13
66021;BME280;52789;59.980;30.346;2022-09-29T12:51:37;100485.34;;;9.90;94.93
66021;BME280;52789;59.980;30.346;2022-09-29T12:54:24;100489.84;;;9.98;93.61
66021;BME280;52789;59.980;30.346;2022-09-29T12:57:08;100492.34;;;9.91;92.91
66021;BME280;52789;59.980;30.346;2022-09-29T13:02:33;100491.53;;;10.15;93.12
66021;BME280;52789;59.980;30.346;2022-09-29T13:15:37;100485.50;;;9.81;92.29
66021;BME280;52789;59.980;30.346;2022-09-29T13:26:29;100479.00;;;9.59;94.93
66021;BME280;52789;59.980;30.346;2022-09-29T13:29:02;100474.78;;;9.48;95.07
66021;BME280;52789;59.980;30.346;2022-09-29T13:31:30;100471.66;;;9.53;95.11
66021;BME280;52789;59.980;30.346;2022-09-29T13:34:02;100475.47;;;9.50;95.58
66021;BME280;52789;59.980;30.346;2022-09-29T13:36:31;100445.88;;;9.29;96.05
66021;BME280;52789;59.980;30.346;2022-09-29T13:39:03;100474.13;;;9.46;95.82
66021;BME280;52789;59.980;30.346;2022-09-29T13:52:36;100489.06;;;9.39;96.07
66021;BME280;52789;59.980;30.346;2022-09-29T13:54:42;100479.09;;;9.41;96.96
66021;BME280;52789;59.980;30.346;2022-09-29T13:59:43;100483.94;;;9.54;95.74
66021;BME280;52789;59.980;30.346;2022-09-29T14:05:46;100488.00;;;9.24;96.77
66021;BME280;52789;59.980;30.346;2022-09-29T14:08:17;100479.81;;;9.09;97.38
66021;BME280;52789;59.980;30.346;2022-09-29T14:10:51;100475.63;;;8.98;97.56
66021;BME280;52789;59.980;30.346;2022-09-29T14:13:32;100484.22;;;8.92;98.29
66021;BME280;52789;59.980;30.346;2022-09-29T14:18:35;100487.25;;;8.97;99.02
66021;BME280;52789;59.980;30.346;2022-09-29T14:21:07;100487.03;;;8.91;98.51
66021;BME280;52789;59.980;30.346;2022-09-29T14:23:51;100486.69;;;8.86;98.82
66021;BME280;52789;59.980;30.346;2022-09-29T14:29:29;100476.09;;;8.94;99.27
66021;BME280;52789;59.980;30.346;2022-09-29T14:31:58;100487.53;;;8.94;99.38
66021;BME280;52789;59.980;30.346;2022-09-29T14:34:32;100485.59;;;8.96;99.69
66021;BME280;52789;59.980;30.346;2022-09-29T14:36:59;100482.78;;;8.98;99.14
66021;BME280;52789;59.980;30.346;2022-09-29T14:39:26;100491.94;;;9.04;99.44
66021;BME280;52789;59.980;30.346;2022-09-29T14:41:52;100495.91;;;8.99;98.35
66021;BME280;52789;59.980;30.346;2022-09-29T14:44:26;100495.84;;;8.91;99.12
66021;BME280;52789;59.980;30.346;2022-09-29T15:01:17;100511.41;;;8.86;99.39
66021;BME280;52789;59.980;30.346;2022-09-29T15:03:51;100515.06;;;8.85;99.81
66021;BME280;52789;59.980;30.346;2022-09-29T15:06:20;100512.69;;;8.74;99.19
66021;BME280;52789;59.980;30.346;2022-09-29T15:09:00;100507.69;;;8.71;99.83
66021;BME280;52789;59.980;30.346;2022-09-29T15:11:30;100509.66;;;8.69;100.00
66021;BME280;52789;59.980;30.346;2022-09-29T15:14:25;100512.78;;;8.64;100.00
66021;BME280;52789;59.980;30.346;2022-09-29T15:17:07;100510.94;;;8.65;100.00
66021;BME280;52789;59.980;30.346;2022-09-29T15:25:21;100521.97;;;8.70;100.00
66021;BME280;52789;59.980;30.346;2022-09-29T15:28:11;100517.31;;;8.72;100.00
66021;BME280;52789;59.980;30.346;2022-09-29T15:30:39;100480.81;;;8.48;100.00
66021;BME280;52789;59.980;30.346;2022-09-29T15:35:38;100517.16;;;8.74;100.00
66021;BME280;52789;59.980;30.346;2022-09-29T15:40:35;100526.72;;;8.66;100.00
66021;BME280;52789;59.980;30.346;2022-09-29T15:43:24;100527.53;;;8.67;100.00
66021;BME280;52789;59.980;30.346;2022-09-29T15:46:00;100530.34;;;8.65;100.00
66021;BME280;52789;59.980;30.346;2022-09-29T15:48:28;100525.31;;;8.54;100.00
66021;BME280;52789;59.980;30.346;2022-09-29T15:50:55;100528.91;;;8.45;100.00
66021;BME280;52789;59.980;30.346;2022-09-29T15:53:21;100541.88;;;8.48;100.00
66021;BME280;52789;59.980;30.346;2022-09-29T15:55:49;100499.72;;;8.27;100.00
66021;BME280;52789;59.980;30.346;2022-09-29T16:02:42;100542.03;;;8.47;100.00
66021;BME280;52789;59.980;30.346;2022-09-29T16:05:11;100539.38;;;8.47;100.00